createdAt,value
2019-04-30T00:00:38.044Z,25.95
2019-04-30T00:03:06.845Z,25.97
2019-04-30T00:05:35.402Z,26.00
2019-04-30T00:08:05.471Z,25.90
2019-04-30T00:10:36.902Z,25.97
2019-04-30T00:13:06.019Z,26.67
2019-04-30T00:15:35.712Z,26.60
2019-04-30T00:18:05.524Z,26.23
2019-04-30T00:20:35.196Z,27.07
2019-04-30T00:23:05.255Z,26.30
2019-04-30T00:25:35.170Z,27.73
2019-04-30T00:28:07.249Z,27.47
2019-04-30T00:30:35.093Z,26.47
2019-04-30T00:33:05.800Z,26.65
2019-04-30T00:35:35.546Z,26.97
2019-04-30T00:38:05.078Z,26.87
2019-04-30T00:40:35.218Z,27.97
2019-04-30T00:43:05.302Z,27.73
2019-04-30T00:45:35.334Z,27.70
2019-04-30T00:48:06.010Z,28.02
2019-04-30T00:50:37.264Z,29.17
2019-04-30T00:53:05.939Z,29.42
2019-04-30T00:55:38.137Z,29.83
2019-04-30T00:58:05.951Z,29.23
2019-04-30T01:00:37.185Z,29.93
2019-04-30T01:03:13.288Z,30.33
2019-04-30T01:05:46.458Z,30.77
2019-04-30T01:08:11.896Z,32.83
2019-04-30T01:10:40.345Z,31.67
2019-04-30T01:13:11.883Z,32.00
2019-04-30T01:15:39.090Z,30.33
2019-04-30T01:18:09.282Z,30.03
2019-04-30T01:20:38.630Z,32.23
2019-04-30T01:23:11.167Z,32.33
2019-04-30T01:25:38.888Z,33.47
2019-04-30T01:28:08.404Z,34.15
2019-04-30T01:30:39.407Z,33.27
2019-04-30T01:33:09.161Z,35.13
2019-04-30T01:35:38.221Z,36.60
2019-04-30T01:38:11.220Z,35.10
2019-04-30T01:40:42.893Z,35.77
2019-04-30T01:43:11.528Z,36.07
2019-04-30T01:45:39.928Z,35.00
2019-04-30T01:48:10.773Z,35.17
2019-04-30T01:50:41.959Z,33.03
2019-04-30T01:53:12.977Z,34.00
2019-04-30T01:55:49.511Z,34.63
2019-04-30T01:58:19.650Z,32.20
2019-04-30T02:00:59.362Z,34.60
2019-04-30T02:03:29.166Z,32.90
2019-04-30T02:05:59.527Z,32.77
2019-04-30T02:08:29.550Z,32.40
2019-04-30T02:10:59.397Z,32.13
2019-04-30T02:13:29.529Z,31.73
2019-04-30T02:15:59.306Z,30.30
2019-04-30T02:18:29.675Z,33.40
2019-04-30T02:20:59.470Z,31.00
2019-04-30T02:23:29.712Z,31.07
2019-04-30T02:25:58.965Z,32.83
2019-04-30T02:28:29.000Z,32.13
2019-04-30T02:30:59.980Z,31.97
2019-04-30T02:33:30.707Z,31.07
2019-04-30T02:36:10.319Z,31.33
2019-04-30T02:38:40.569Z,31.17
2019-04-30T02:41:09.989Z,32.00
2019-04-30T02:43:40.784Z,34.47
2019-04-30T02:46:10.615Z,29.80
2019-04-30T02:48:40.254Z,31.57
2019-04-30T02:51:12.477Z,32.33
2019-04-30T02:53:53.137Z,32.43
2019-04-30T02:56:26.573Z,31.27
2019-04-30T02:58:53.437Z,33.33
2019-04-30T03:01:22.030Z,32.28
2019-04-30T03:03:50.509Z,33.17
2019-04-30T03:06:20.549Z,33.60
2019-04-30T03:08:51.254Z,31.90
2019-04-30T03:11:20.668Z,33.03
2019-04-30T03:13:49.754Z,34.33
2019-04-30T03:16:20.701Z,34.50
2019-04-30T03:18:53.898Z,32.33
2019-04-30T03:21:42.210Z,31.62
2019-04-30T03:24:11.233Z,32.73
2019-04-30T03:26:40.367Z,32.50
2019-04-30T03:29:11.136Z,32.83
2019-04-30T03:31:44.002Z,33.90
2019-04-30T03:34:16.711Z,36.30
2019-04-30T03:36:40.619Z,34.53
2019-04-30T03:39:10.861Z,35.30
2019-04-30T03:41:41.306Z,34.47
2019-04-30T03:44:19.700Z,35.00
2019-04-30T03:46:40.218Z,35.80
2019-04-30T03:49:12.569Z,37.33
2019-04-30T03:51:40.240Z,36.50
2019-04-30T03:54:10.230Z,36.83
2019-04-30T03:56:39.966Z,38.50
2019-04-30T03:59:10.439Z,38.50
2019-04-30T04:01:59.521Z,39.93
2019-04-30T04:04:35.212Z,39.37
2019-04-30T04:07:23.462Z,37.27
2019-04-30T04:10:11.731Z,39.90
2019-04-30T04:12:40.198Z,41.17
2019-04-30T04:15:10.557Z,42.17
2019-04-30T04:17:39.893Z,41.20
2019-04-30T04:20:10.674Z,42.67
2019-04-30T04:22:40.332Z,43.53
2019-04-30T04:25:12.758Z,43.67
2019-04-30T04:27:39.412Z,43.63
2019-04-30T04:30:10.669Z,47.40
2019-04-30T04:32:40.684Z,45.07
2019-04-30T04:35:09.845Z,46.93
2019-04-30T04:37:39.691Z,47.40
2019-04-30T04:40:09.280Z,49.27
2019-04-30T04:42:39.599Z,48.53
2019-04-30T04:45:09.934Z,48.77
2019-04-30T04:47:40.242Z,51.90
2019-04-30T04:50:10.338Z,50.23
2019-04-30T04:52:39.622Z,51.57
2019-04-30T04:55:10.046Z,50.93
2019-04-30T04:57:40.086Z,50.57
2019-04-30T05:00:10.809Z,53.50
2019-04-30T05:02:41.052Z,53.87
2019-04-30T05:05:10.397Z,53.80
2019-04-30T05:07:39.885Z,56.73
2019-04-30T05:10:09.476Z,55.23
2019-04-30T05:12:39.823Z,53.43
2019-04-30T05:15:10.154Z,52.67
2019-04-30T05:17:39.803Z,56.63
2019-04-30T05:20:09.980Z,53.30
2019-04-30T05:22:39.017Z,60.43
2019-04-30T05:25:08.832Z,59.87
2019-04-30T05:27:39.052Z,57.17
2019-04-30T05:30:09.717Z,58.83
2019-04-30T05:32:39.116Z,55.77
2019-04-30T05:35:09.518Z,51.07
2019-04-30T05:37:38.443Z,56.15
2019-04-30T05:40:09.289Z,54.07
2019-04-30T05:42:38.719Z,53.50
2019-04-30T05:45:10.583Z,56.17
2019-04-30T05:47:39.102Z,54.23
2019-04-30T05:50:08.960Z,54.37
2019-04-30T05:52:39.512Z,54.70
2019-04-30T05:55:08.593Z,57.65
2019-04-30T05:57:40.790Z,56.30
2019-04-30T06:00:10.048Z,57.40
2019-04-30T06:02:39.896Z,55.87
2019-04-30T06:05:09.027Z,59.53
2019-04-30T06:07:39.293Z,60.00
2019-04-30T06:10:09.669Z,53.00
2019-04-30T06:12:39.796Z,55.47
2019-04-30T06:15:19.402Z,52.57
2019-04-30T06:17:59.698Z,53.70
2019-04-30T06:20:21.028Z,56.80
2019-04-30T06:22:52.167Z,54.87
2019-04-30T06:25:31.711Z,52.73
2019-04-30T06:27:51.360Z,53.50
2019-04-30T06:30:19.948Z,57.70
2019-04-30T06:32:49.635Z,50.13
2019-04-30T06:35:19.383Z,49.27
2019-04-30T06:37:48.901Z,47.23
2019-04-30T06:40:19.561Z,47.80
2019-04-30T06:42:49.522Z,48.03
2019-04-30T06:45:19.262Z,47.23
2019-04-30T06:47:48.895Z,47.80
2019-04-30T06:50:19.402Z,43.80
2019-04-30T06:52:56.321Z,44.37
2019-04-30T06:55:19.300Z,43.77
2019-04-30T06:57:49.643Z,42.73
2019-04-30T07:00:32.480Z,46.23
2019-04-30T07:02:50.046Z,40.93
2019-04-30T07:05:18.712Z,42.50
2019-04-30T07:07:48.971Z,47.13
2019-04-30T07:10:20.497Z,43.30
2019-04-30T07:12:50.714Z,44.00
2019-04-30T07:15:19.662Z,46.00
2019-04-30T07:17:49.172Z,44.07
2019-04-30T07:20:19.108Z,42.83
2019-04-30T07:22:52.437Z,43.52
2019-04-30T07:25:19.529Z,41.57
2019-04-30T07:27:50.589Z,38.93
2019-04-30T07:30:19.242Z,45.23
2019-04-30T07:32:48.843Z,40.40
2019-04-30T07:35:19.337Z,42.13
2019-04-30T07:37:49.517Z,40.13
2019-04-30T07:40:19.051Z,37.20
2019-04-30T07:42:49.256Z,37.27
2019-04-30T07:45:19.433Z,37.23
2019-04-30T07:47:49.504Z,38.63
2019-04-30T07:50:20.600Z,35.80
2019-04-30T07:53:01.917Z,37.33
2019-04-30T07:55:19.598Z,37.63
2019-04-30T07:57:50.554Z,37.70
2019-04-30T08:00:19.423Z,36.53
2019-04-30T08:03:06.513Z,30.23
2019-04-30T08:05:40.007Z,26.47
2019-04-30T08:08:20.647Z,25.77
2019-04-30T08:10:39.430Z,26.30
2019-04-30T08:13:13.682Z,29.00
2019-04-30T08:15:38.208Z,28.50
2019-04-30T08:18:08.753Z,31.50
2019-04-30T08:20:39.203Z,31.17
2019-04-30T08:23:20.303Z,27.93
2019-04-30T08:25:39.077Z,26.03
2019-04-30T08:28:09.097Z,27.27
2019-04-30T08:30:39.131Z,27.40
2019-04-30T08:33:09.461Z,27.27
2019-04-30T08:35:39.788Z,25.70
2019-04-30T08:38:10.615Z,25.90
2019-04-30T08:40:47.229Z,24.87
2019-04-30T08:43:09.541Z,25.37
2019-04-30T08:45:38.600Z,26.90
2019-04-30T08:48:09.102Z,27.07
2019-04-30T08:50:39.295Z,28.80
2019-04-30T08:53:10.926Z,27.87
2019-04-30T08:55:39.199Z,25.27
2019-04-30T08:58:12.439Z,25.50
2019-04-30T09:00:38.511Z,23.77
2019-04-30T09:03:09.230Z,24.27
2019-04-30T09:05:38.922Z,22.77
2019-04-30T09:08:09.636Z,24.50
2019-04-30T09:10:39.308Z,20.70
2019-04-30T09:13:09.118Z,22.57
2019-04-30T09:15:37.704Z,24.50
2019-04-30T09:18:11.710Z,23.73
2019-04-30T09:20:36.267Z,24.10
2019-04-30T09:23:04.702Z,22.63
2019-04-30T09:25:33.107Z,23.60
2019-04-30T09:28:04.291Z,22.20
2019-04-30T09:30:31.752Z,24.80
2019-04-30T09:33:00.190Z,25.10
2019-04-30T09:35:31.791Z,26.33
2019-04-30T09:38:01.751Z,26.03
2019-04-30T09:40:32.266Z,24.13
2019-04-30T09:43:00.401Z,21.93
2019-04-30T09:45:29.299Z,20.53
2019-04-30T09:47:59.208Z,23.30
2019-04-30T09:50:28.961Z,21.17
2019-04-30T09:53:00.077Z,20.53
2019-04-30T09:55:29.050Z,21.10
2019-04-30T09:57:58.839Z,25.10
2019-04-30T10:00:29.509Z,23.37
2019-04-30T10:02:59.782Z,27.43
2019-04-30T10:05:29.206Z,18.73
2019-04-30T10:07:59.404Z,17.00
2019-04-30T10:10:29.899Z,17.37
2019-04-30T10:12:59.255Z,17.17
2019-04-30T10:15:29.549Z,17.97
2019-04-30T10:17:58.346Z,17.30
2019-04-30T10:20:41.806Z,17.80
2019-04-30T10:23:10.239Z,17.37
2019-04-30T10:25:38.919Z,17.07
2019-04-30T10:28:10.019Z,20.50
2019-04-30T10:30:38.389Z,19.07
2019-04-30T10:33:07.130Z,20.13
2019-04-30T10:35:35.923Z,19.27
2019-04-30T10:38:04.906Z,15.43
2019-04-30T10:40:33.411Z,18.23
2019-04-30T10:43:01.938Z,15.53
2019-04-30T10:45:30.603Z,16.37
2019-04-30T10:47:59.271Z,15.97
2019-04-30T10:50:27.853Z,16.57
2019-04-30T10:52:56.261Z,16.60
2019-04-30T10:55:24.670Z,16.20
2019-04-30T10:57:53.153Z,17.37
2019-04-30T11:00:36.273Z,17.03
2019-04-30T11:03:17.255Z,19.60
2019-04-30T11:05:35.792Z,20.07
2019-04-30T11:08:04.366Z,19.43
2019-04-30T11:10:33.397Z,20.47
2019-04-30T11:13:01.859Z,19.43
2019-04-30T11:15:30.266Z,20.40
2019-04-30T11:17:59.686Z,18.77
2019-04-30T11:20:29.844Z,19.20
2019-04-30T11:22:58.547Z,18.97
2019-04-30T11:25:28.537Z,18.50
2019-04-30T11:27:57.802Z,16.33
2019-04-30T11:30:26.817Z,18.57
2019-04-30T11:32:56.324Z,17.53
2019-04-30T11:35:25.059Z,17.23
2019-04-30T11:37:53.546Z,17.83
2019-04-30T11:40:34.519Z,19.23
2019-04-30T11:42:57.617Z,17.40
2019-04-30T11:45:45.714Z,19.53
2019-04-30T11:48:14.279Z,19.87
2019-04-30T11:50:42.767Z,18.27
2019-04-30T11:53:24.521Z,20.83
2019-04-30T11:55:41.341Z,18.27
2019-04-30T11:58:21.106Z,18.57
2019-04-30T12:00:41.530Z,16.57
2019-04-30T12:03:10.146Z,17.27
2019-04-30T12:05:38.947Z,19.37
2019-04-30T12:08:11.926Z,17.50
2019-04-30T12:10:42.018Z,19.33
2019-04-30T12:13:26.437Z,18.50
2019-04-30T12:15:55.894Z,16.53
2019-04-30T12:18:24.448Z,16.60
2019-04-30T12:20:53.046Z,16.77
2019-04-30T12:23:21.698Z,18.63
2019-04-30T12:25:50.170Z,17.87
2019-04-30T12:28:19.516Z,17.70
2019-04-30T12:30:48.960Z,17.40
2019-04-30T12:33:19.123Z,16.67
2019-04-30T12:35:49.166Z,16.00
2019-04-30T12:38:19.135Z,16.40
2019-04-30T12:40:47.891Z,16.37
2019-04-30T12:43:16.363Z,18.57
2019-04-30T12:45:44.821Z,15.57
2019-04-30T12:48:14.857Z,16.87
2019-04-30T12:50:49.151Z,18.17
2019-04-30T12:53:19.246Z,17.27
2019-04-30T12:56:06.458Z,17.93
2019-04-30T12:58:35.072Z,17.33
2019-04-30T13:01:03.566Z,19.73
2019-04-30T13:03:32.047Z,17.03
2019-04-30T13:06:01.615Z,17.27
2019-04-30T13:08:31.023Z,14.97
2019-04-30T13:11:00.430Z,13.37
2019-04-30T13:13:31.699Z,17.03
2019-04-30T13:16:00.061Z,15.57
2019-04-30T13:18:29.607Z,16.48
2019-04-30T13:20:58.859Z,17.90
2019-04-30T13:23:27.550Z,17.77
2019-04-30T13:25:56.003Z,18.50
2019-04-30T13:28:26.055Z,18.42
2019-04-30T13:30:54.470Z,16.57
2019-04-30T13:33:28.895Z,15.23
2019-04-30T13:35:58.821Z,14.33
2019-04-30T13:38:49.101Z,14.33
2019-04-30T13:41:32.598Z,16.23
2019-04-30T13:44:02.251Z,17.07
2019-04-30T13:46:30.659Z,17.67
2019-04-30T13:48:59.146Z,14.40
2019-04-30T13:51:27.595Z,13.37
2019-04-30T13:53:56.026Z,12.57
2019-04-30T13:56:24.458Z,11.38
2019-04-30T13:58:52.891Z,11.33
2019-04-30T14:01:21.559Z,12.33
2019-04-30T14:04:09.917Z,15.70
2019-04-30T14:06:39.970Z,14.27
2019-04-30T14:09:16.150Z,12.73
2019-04-30T14:11:44.601Z,14.77
2019-04-30T14:14:13.026Z,12.55
2019-04-30T14:16:43.840Z,20.50
2019-04-30T14:19:11.675Z,15.50
2019-04-30T14:21:40.116Z,16.27
2019-04-30T14:24:09.465Z,16.87
2019-04-30T14:26:39.117Z,13.60
2019-04-30T14:29:07.737Z,12.68
2019-04-30T14:31:36.148Z,17.67
2019-04-30T14:34:04.906Z,16.57
2019-04-30T14:36:33.357Z,16.57
2019-04-30T14:39:13.377Z,17.37
2019-04-30T14:41:32.863Z,17.20
2019-04-30T14:44:03.881Z,19.17
2019-04-30T14:46:51.316Z,18.30
2019-04-30T14:49:38.485Z,16.57
2019-04-30T14:52:09.335Z,16.73
2019-04-30T14:54:42.454Z,17.77
2019-04-30T14:57:18.463Z,16.65
2019-04-30T14:59:48.721Z,16.10
2019-04-30T15:02:21.649Z,10.53
2019-04-30T15:04:50.123Z,9.40
2019-04-30T15:07:19.466Z,12.00
2019-04-30T15:09:47.903Z,11.23
2019-04-30T15:12:16.357Z,8.95
2019-04-30T15:14:44.767Z,10.43
2019-04-30T15:17:13.181Z,10.70
2019-04-30T15:19:41.689Z,10.77
2019-04-30T15:22:10.127Z,10.37
2019-04-30T15:24:40.118Z,9.70
2019-04-30T15:27:09.214Z,11.77
2019-04-30T15:29:39.216Z,9.87
2019-04-30T15:32:08.686Z,9.87
2019-04-30T15:34:39.901Z,11.17
2019-04-30T15:37:18.681Z,8.50
2019-04-30T15:39:39.488Z,10.37
2019-04-30T15:42:08.482Z,8.93
2019-04-30T15:44:42.615Z,9.10
2019-04-30T15:47:09.126Z,10.70
2019-04-30T15:49:38.022Z,12.83
2019-04-30T15:52:08.931Z,11.10
2019-04-30T15:54:36.943Z,13.37
2019-04-30T15:57:06.049Z,10.63
2019-04-30T15:59:39.533Z,8.47
2019-04-30T16:02:09.910Z,11.10
2019-04-30T16:04:40.014Z,9.07
2019-04-30T16:07:08.557Z,9.13
2019-04-30T16:09:38.763Z,11.47
2019-04-30T16:12:21.523Z,11.25
2019-04-30T16:14:49.928Z,10.30
2019-04-30T16:17:20.629Z,11.03
2019-04-30T16:19:49.252Z,10.57
2019-04-30T16:22:19.145Z,8.40
2019-04-30T16:24:49.494Z,10.23
2019-04-30T16:27:19.198Z,10.78
2019-04-30T16:29:49.732Z,9.10
2019-04-30T16:32:18.862Z,11.18
2019-04-30T16:34:49.413Z,12.03
2019-04-30T16:37:19.939Z,13.10
2019-04-30T16:39:47.618Z,10.20
2019-04-30T16:42:16.030Z,9.33
2019-04-30T16:44:44.463Z,9.30
2019-04-30T16:47:16.250Z,13.93
2019-04-30T16:49:43.057Z,10.57
2019-04-30T16:52:11.567Z,9.63
2019-04-30T16:54:40.001Z,11.73
2019-04-30T16:57:10.253Z,10.80
2019-04-30T16:59:42.251Z,9.23
2019-04-30T17:02:11.892Z,9.50
2019-04-30T17:04:44.642Z,9.13
2019-04-30T17:07:29.455Z,9.20
2019-04-30T17:10:01.992Z,11.13
2019-04-30T17:12:32.013Z,11.43
2019-04-30T17:15:13.692Z,10.13
2019-04-30T17:17:42.122Z,10.03
2019-04-30T17:20:11.197Z,9.03
2019-04-30T17:22:39.683Z,10.33
2019-04-30T17:25:08.698Z,10.93
2019-04-30T17:27:39.132Z,11.20
2019-04-30T17:30:11.043Z,11.22
2019-04-30T17:32:39.754Z,10.97
2019-04-30T17:35:09.699Z,9.33
2019-04-30T17:37:38.103Z,10.33
2019-04-30T17:40:09.247Z,11.10
2019-04-30T17:42:37.446Z,14.30
2019-04-30T17:45:09.435Z,20.60
2019-04-30T17:47:38.117Z,18.23
2019-04-30T17:50:08.914Z,19.47
2019-04-30T17:52:37.637Z,20.43
2019-04-30T17:55:09.680Z,20.90
2019-04-30T17:57:40.082Z,23.27
2019-04-30T18:00:18.649Z,24.93
2019-04-30T18:02:42.250Z,23.60
2019-04-30T18:05:11.395Z,23.70
2019-04-30T18:07:40.046Z,24.47
2019-04-30T18:10:10.637Z,23.73
2019-04-30T18:12:39.233Z,23.27
2019-04-30T18:15:12.391Z,26.17
2019-04-30T18:17:41.463Z,24.87
2019-04-30T18:20:19.044Z,25.77
2019-04-30T18:22:58.444Z,24.63
2019-04-30T18:25:40.659Z,23.10
2019-04-30T18:28:09.246Z,25.67
2019-04-30T18:30:39.211Z,24.87
2019-04-30T18:33:09.690Z,25.57
2019-04-30T18:35:38.825Z,26.13
2019-04-30T18:38:09.612Z,27.47
2019-04-30T18:40:39.737Z,26.40
2019-04-30T18:43:08.321Z,30.00
2019-04-30T18:45:36.886Z,27.33
2019-04-30T18:48:05.594Z,27.63
2019-04-30T18:50:34.006Z,31.30
2019-04-30T18:53:04.050Z,28.13
2019-04-30T18:55:32.693Z,29.07
2019-04-30T18:58:01.487Z,30.60
2019-04-30T19:00:31.800Z,33.57
2019-04-30T19:03:00.314Z,31.20
2019-04-30T19:05:30.981Z,29.73
2019-04-30T19:08:03.524Z,30.27
2019-04-30T19:10:36.796Z,30.50
2019-04-30T19:13:23.379Z,30.07
2019-04-30T19:16:18.173Z,30.73
2019-04-30T19:18:28.257Z,34.20
2019-04-30T19:20:57.842Z,32.47
2019-04-30T19:23:26.298Z,31.83
2019-04-30T19:25:54.779Z,34.80
2019-04-30T19:28:23.205Z,32.40
2019-04-30T19:30:57.612Z,35.13
2019-04-30T19:33:21.978Z,31.80
2019-04-30T19:35:50.656Z,32.53
2019-04-30T19:38:19.514Z,41.10
2019-04-30T19:40:49.382Z,34.10
2019-04-30T19:43:17.906Z,34.40
2019-04-30T19:45:46.394Z,33.30
2019-04-30T19:48:16.180Z,36.30
2019-04-30T19:50:44.819Z,37.13
2019-04-30T19:53:13.257Z,48.13
2019-04-30T19:55:41.691Z,42.63
2019-04-30T19:58:10.810Z,41.17
2019-04-30T20:00:40.334Z,38.13
2019-04-30T20:03:09.021Z,35.97
2019-04-30T20:05:39.444Z,37.43
2019-04-30T20:08:08.981Z,35.87
2019-04-30T20:10:39.879Z,35.83
2019-04-30T20:13:08.299Z,39.37
2019-04-30T20:15:36.758Z,38.30
2019-04-30T20:18:08.981Z,38.25
2019-04-30T20:20:39.822Z,39.67
2019-04-30T20:23:08.466Z,37.37
2019-04-30T20:25:36.970Z,42.47
2019-04-30T20:28:05.541Z,39.23
2019-04-30T20:30:34.031Z,39.57
2019-04-30T20:33:02.530Z,40.43
2019-04-30T20:35:30.943Z,39.97
2019-04-30T20:38:13.153Z,43.10
2019-04-30T20:40:44.992Z,37.93
2019-04-30T20:43:13.381Z,38.73
2019-04-30T20:45:41.843Z,37.83
2019-04-30T20:48:10.291Z,37.33
2019-04-30T20:50:38.710Z,37.40
2019-04-30T20:53:08.841Z,35.37
2019-04-30T20:55:40.486Z,36.53
2019-04-30T20:58:09.485Z,36.97
2019-04-30T21:00:38.179Z,38.47
2019-04-30T21:03:06.592Z,34.40
2019-04-30T21:05:35.104Z,35.20
2019-04-30T21:08:03.626Z,36.63
2019-04-30T21:10:32.036Z,37.33
2019-04-30T21:13:00.438Z,37.43
2019-04-30T21:15:29.762Z,38.53
2019-04-30T21:17:58.768Z,37.23
2019-04-30T21:20:28.879Z,38.43
2019-04-30T21:22:59.466Z,37.50
2019-04-30T21:25:29.220Z,38.17
2019-04-30T21:27:59.764Z,36.07
2019-04-30T21:30:28.038Z,38.13
2019-04-30T21:33:00.731Z,36.70
2019-04-30T21:35:50.708Z,38.50
2019-04-30T21:38:19.471Z,36.28
2019-04-30T21:40:49.223Z,37.40
2019-04-30T21:43:17.789Z,37.30
2019-04-30T21:45:46.211Z,36.40
2019-04-30T21:48:14.641Z,37.53
2019-04-30T21:50:43.179Z,38.87
2019-04-30T21:53:11.588Z,37.50
2019-04-30T21:55:40.099Z,38.70
2019-04-30T21:58:09.540Z,39.03
2019-04-30T22:00:42.562Z,38.90
2019-04-30T22:03:10.961Z,38.17
2019-04-30T22:05:39.409Z,38.57
2019-04-30T22:08:09.077Z,38.60
2019-04-30T22:10:38.118Z,40.43
2019-04-30T22:13:08.772Z,39.00
2019-04-30T22:15:36.720Z,37.37
2019-04-30T22:18:05.145Z,38.00
2019-04-30T22:20:33.554Z,37.60
2019-04-30T22:23:01.994Z,38.73
2019-04-30T22:25:30.399Z,38.47
2019-04-30T22:27:58.822Z,38.43
2019-04-30T22:30:27.274Z,39.07
2019-04-30T22:32:55.706Z,39.27
2019-04-30T22:35:28.486Z,40.13
2019-04-30T22:38:01.549Z,38.90
2019-04-30T22:40:31.643Z,38.57
2019-04-30T22:43:01.232Z,39.53
2019-04-30T22:45:31.306Z,37.87
2019-04-30T22:47:59.745Z,39.30
2019-04-30T22:50:28.144Z,38.43
2019-04-30T22:52:56.613Z,38.83
2019-04-30T22:55:25.018Z,37.50
2019-04-30T22:57:53.428Z,38.13
2019-04-30T23:00:26.347Z,38.03
2019-04-30T23:02:56.432Z,37.07
2019-04-30T23:05:24.865Z,41.07
2019-04-30T23:07:53.538Z,39.40
2019-04-30T23:10:22.050Z,38.27
2019-04-30T23:12:50.452Z,39.50
2019-04-30T23:15:19.800Z,41.97
2019-04-30T23:17:48.266Z,41.73
2019-04-30T23:20:16.742Z,41.57
2019-04-30T23:22:45.158Z,37.37
2019-04-30T23:25:13.934Z,39.87
2019-04-30T23:27:42.348Z,40.40
2019-04-30T23:30:11.515Z,39.40
2019-04-30T23:32:39.944Z,39.40
2019-04-30T23:35:08.426Z,41.80
2019-04-30T23:37:36.937Z,40.23
2019-04-30T23:40:25.202Z,40.05
2019-04-30T23:42:54.128Z,41.30
2019-04-30T23:45:22.636Z,41.80
2019-04-30T23:47:51.060Z,39.37
2019-04-30T23:50:19.523Z,43.05
2019-04-30T23:52:48.004Z,40.07
2019-04-30T23:55:16.418Z,40.67
2019-04-30T23:57:44.869Z,41.13
